Time;durP1;ratioP1;P1;durP2;ratioP2;P2;SDS_P1;SDS_P2;PMS_P1;PMS_P2;Temp;Humidity;BMP_temperature;BMP_pressure;BME280_temperature;BME280_humidity;BME280_pressure;Samples;Min_cycle;Max_cycle;Signal;HPM_P1;HPM_P2
2024/01/08 00:00:52;;;;;;;5.83;2.60;;;-1.90;59.90;;;-3.15;64.85;98402.19;5036372;28;20458;-69
2024/01/08 00:03:21;;;;;;;4.07;2.90;;;-1.90;59.60;;;-3.22;65.60;98399.19;5052763;28;20458;-70
2024/01/08 00:05:48;;;;;;;2.40;2.20;;;-2.00;59.70;;;-3.21;65.04;98395.59;5046278;28;20455;-68
2024/01/08 00:08:16;;;;;;;2.80;2.60;;;-1.90;59.80;;;-3.24;65.33;98384.41;5051883;28;20479;-67
2024/01/08 00:10:43;;;;;;;3.77;2.23;;;-2.00;59.80;;;-3.25;65.67;98380.94;5036066;28;20570;-67
2024/01/08 00:13:10;;;;;;;3.27;2.33;;;-2.00;59.90;;;-3.22;66.14;98385.97;5041066;28;20463;-68
2024/01/08 00:15:37;;;;;;;2.63;2.43;;;-2.00;60.10;;;-3.73;66.17;98321.16;5043606;28;20507;-68
2024/01/08 00:18:05;;;;;;;2.90;2.33;;;-1.90;60.40;;;-3.25;66.12;98396.78;5046692;28;20470;-68
2024/01/08 00:20:34;;;;;;;2.43;2.23;;;-2.00;60.30;;;-3.20;66.61;98391.97;5050244;28;20453;-68
2024/01/08 00:23:01;;;;;;;3.00;2.47;;;-2.00;60.50;;;-3.14;65.87;98396.78;5049614;28;20481;-69
2024/01/08 00:25:28;;;;;;;6.27;3.80;;;-1.90;60.60;;;-3.15;66.10;98395.09;5048326;28;20450;-67
2024/01/08 00:27:57;;;;;;;3.30;2.97;;;-1.90;60.40;;;-3.06;66.13;98396.19;5038587;28;20832;-69
2024/01/08 00:30:24;;;;;;;3.00;2.33;;;-1.90;60.60;;;-2.99;65.65;98393.91;5044348;28;20470;-70
2024/01/08 00:32:51;;;;;;;3.07;2.77;;;-1.80;60.60;;;-2.95;66.17;98392.72;5041958;28;20459;-69
2024/01/08 00:35:19;;;;;;;3.90;2.87;;;-1.80;60.60;;;-3.07;66.35;98396.31;5037973;28;20484;-70
2024/01/08 00:37:47;;;;;;;3.43;2.93;;;-1.80;60.70;;;-3.01;65.60;98390.53;5043334;28;20461;-68
2024/01/08 00:40:15;;;;;;;2.90;2.70;;;-1.80;60.60;;;-2.93;65.93;98393.44;5042771;28;20461;-68
2024/01/08 00:42:42;;;;;;;4.03;3.30;;;-1.80;60.60;;;-3.02;66.11;98379.13;5038912;28;20463;-69
2024/01/08 00:45:11;;;;;;;4.70;3.30;;;-1.80;60.70;;;-2.90;66.00;98387.91;5041862;28;20479;-69
2024/01/08 00:47:41;;;;;;;6.57;2.70;;;-1.80;60.70;;;-2.89;66.24;98383.44;5036784;28;20465;-67
2024/01/08 00:50:09;;;;;;;3.43;3.13;;;-1.70;60.90;;;-3.47;66.46;98295.38;5037378;28;20550;-70
2024/01/08 00:52:37;;;;;;;3.50;3.10;;;-1.80;61.00;;;-2.97;66.15;98386.69;5036288;28;20479;-67
2024/01/08 00:55:11;;;;;;;5.27;3.43;;;-1.80;60.90;;;-3.14;66.67;98364.22;5029250;28;20471;-69
2024/01/08 00:57:40;;;;;;;3.80;3.43;;;-1.70;61.20;;;-2.96;67.03;98385.72;5036202;28;20832;-69
2024/01/08 01:00:08;;;;;;;5.23;3.70;;;-1.80;61.40;;;-2.83;67.44;98393.56;5039671;28;20457;-68
2024/01/08 01:02:36;;;;;;;3.67;3.37;;;-1.70;61.70;;;-2.93;67.56;98392.59;5042038;28;20512;-69
2024/01/08 01:05:05;;;;;;;5.73;3.70;;;-1.70;61.70;;;-3.06;68.96;98404.13;5037984;28;20475;-68
2024/01/08 01:07:33;;;;;;;4.20;3.80;;;-1.80;62.20;;;-3.06;68.88;98392.72;5039682;28;20501;-68
2024/01/08 01:10:00;;;;;;;4.87;3.73;;;-1.80;62.60;;;-3.03;68.90;98403.03;5038021;28;20461;-67
2024/01/08 01:12:29;;;;;;;5.20;4.00;;;-1.80;62.90;;;-3.00;69.43;98406.31;5032040;28;20458;-68
2024/01/08 01:14:57;;;;;;;6.10;4.10;;;-1.80;63.20;;;-2.97;69.58;98407.84;5038990;28;20972;-68
2024/01/08 01:17:24;;;;;;;5.00;4.00;;;-1.80;63.50;;;-3.19;70.30;98411.31;5035988;28;20458;-69
2024/01/08 01:19:52;;;;;;;5.00;3.83;;;-1.90;63.40;;;-3.20;70.22;98404.34;5036948;28;20873;-67
2024/01/08 01:22:19;;;;;;;4.30;3.90;;;-1.90;63.70;;;-3.22;71.14;98408.91;5042202;28;20442;-69
2024/01/08 01:24:46;;;;;;;4.20;3.80;;;-1.90;63.90;;;-3.06;70.79;98403.28;5042427;28;20455;-68
2024/01/08 01:27:13;;;;;;;6.23;4.27;;;-1.90;64.00;;;-3.03;70.64;98414.47;5042687;28;20474;-68
2024/01/08 01:29:42;;;;;;;6.20;4.60;;;-1.90;64.10;;;-3.03;70.71;98419.75;5063802;28;20458;-70
2024/01/08 01:32:10;;;;;;;4.03;3.70;;;-1.80;64.10;;;-3.25;70.76;98423.22;5044113;28;20461;-68
2024/01/08 01:34:39;;;;;;;4.97;4.50;;;-1.90;63.70;;;-3.20;70.94;98421.06;5041447;28;20456;-69
2024/01/08 01:37:06;;;;;;;5.00;4.50;;;-2.00;63.90;;;-3.18;70.76;98420.94;5040750;28;20463;-68
2024/01/08 01:39:33;;;;;;;4.60;4.10;;;-2.00;63.80;;;-3.17;70.58;98427.91;5042707;28;20568;-69
2024/01/08 01:42:03;;;;;;;8.50;3.80;;;-1.90;64.00;;;-3.01;70.08;98419.63;5042926;28;20981;-68
2024/01/08 01:44:29;;;;;;;4.70;4.30;;;-1.90;64.10;;;-3.14;70.53;98420.56;5034714;28;20459;-68
2024/01/08 01:46:58;;;;;;;5.03;3.53;;;-1.90;63.70;;;-3.25;69.99;98427.66;5032486;28;20473;-68
2024/01/08 01:49:27;;;;;;;3.50;3.20;;;-2.00;63.20;;;-3.25;69.43;98425.88;5041034;28;20457;-72
2024/01/08 01:51:56;;;;;;;5.80;4.50;;;-2.00;63.30;;;-3.25;69.25;98430.28;5035099;28;20465;-69
2024/01/08 01:54:26;;;;;;;4.80;4.00;;;-2.00;63.00;;;-3.16;69.18;98411.91;5037387;28;20467;-68
2024/01/08 01:56:57;;;;;;;5.00;4.23;;;-2.00;63.20;;;-3.85;68.54;98344.06;5039036;28;20478;-68
2024/01/08 01:59:27;;;;;;;5.20;3.50;;;-2.00;62.40;;;-3.39;68.85;98415.50;5035850;28;20461;-68
2024/01/08 02:01:57;;;;;;;4.50;2.77;;;-2.10;62.20;;;-3.40;67.29;98416.47;5036201;28;20555;-68
2024/01/08 02:04:26;;;;;;;3.47;2.60;;;-2.10;61.30;;;-3.46;67.59;98417.78;5038950;28;20827;-68
2024/01/08 02:06:56;;;;;;;4.77;3.13;;;-2.10;61.10;;;-3.41;66.96;98415.59;5036601;28;20507;-68
2024/01/08 02:09:23;;;;;;;3.57;3.27;;;-2.20;61.10;;;-3.38;66.36;98414.53;5040103;28;20465;-68
2024/01/08 02:11:51;;;;;;;3.57;3.10;;;-2.10;60.90;;;-3.46;67.06;98397.47;5036161;28;20449;-68
2024/01/08 02:14:18;;;;;;;3.30;3.00;;;-2.10;61.10;;;-3.44;66.54;98408.75;5046711;28;20450;-69
2024/01/08 02:16:45;;;;;;;4.87;3.33;;;-2.10;60.80;;;-3.45;67.28;98408.88;5037014;28;21070;-69
2024/01/08 02:19:16;;;;;;;3.50;2.90;;;-2.20;60.80;;;-3.43;66.63;98413.06;5038287;28;20464;-68
2024/01/08 02:21:44;;;;;;;3.37;2.63;;;-2.20;60.80;;;-3.51;66.50;98404.03;5044719;28;20470;-68
2024/01/08 02:24:12;;;;;;;3.60;2.73;;;-2.20;60.50;;;-3.54;65.93;98407.78;5038419;28;20468;-68
2024/01/08 02:26:40;;;;;;;4.63;2.93;;;-2.20;60.10;;;-3.53;66.02;98409.47;5035211;28;20561;-68
2024/01/08 02:29:09;;;;;;;3.50;3.20;;;-2.20;60.20;;;-3.58;66.45;98403.66;5036231;28;20458;-68
2024/01/08 02:31:36;;;;;;;3.60;3.23;;;-2.30;60.20;;;-3.47;65.79;98426.66;5041530;28;20548;-68
2024/01/08 02:34:03;;;;;;;3.43;2.63;;;-2.20;60.00;;;-3.48;65.36;98409.94;5044565;28;20459;-68
2024/01/08 02:36:31;;;;;;;2.80;2.60;;;-2.20;59.80;;;-3.52;65.36;98413.78;5038174;28;21365;-68
2024/01/08 02:38:58;;;;;;;5.80;3.03;;;-2.20;59.50;;;-3.47;65.24;98414.28;5037591;28;20465;-69
2024/01/08 02:41:27;;;;;;;4.30;3.00;;;-2.20;59.70;;;-3.45;64.80;98415.00;5042603;28;20469;-69
2024/01/08 02:43:54;;;;;;;4.03;3.20;;;-2.20;59.30;;;-3.45;64.47;98412.34;5041585;28;20482;-68
2024/01/08 02:46:21;;;;;;;3.43;2.67;;;-2.20;59.10;;;-3.53;63.88;98417.38;5031607;28;20546;-68
2024/01/08 02:48:49;;;;;;;3.50;2.90;;;-2.20;58.50;;;-3.63;64.28;98419.03;5035778;28;20489;-68
2024/01/08 02:51:16;;;;;;;3.90;3.13;;;-2.30;58.40;;;-3.59;63.59;98418.69;5037066;28;20546;-69
2024/01/08 02:53:45;;;;;;;3.80;2.80;;;-2.30;58.30;;;-3.59;63.29;98425.75;5043917;28;20470;-68
2024/01/08 02:56:19;;;;;;;3.23;2.70;;;-2.30;58.10;;;-3.58;63.85;98424.81;5043244;28;21002;-68
2024/01/08 02:58:48;;;;;;;3.17;2.73;;;-2.30;58.20;;;-3.56;63.77;98438.75;5034408;28;20514;-69
2024/01/08 03:01:16;;;;;;;2.60;2.40;;;-2.30;58.20;;;-3.64;63.88;98436.69;5035036;28;20482;-68
2024/01/08 03:03:43;;;;;;;3.17;2.90;;;-2.30;58.40;;;-3.62;64.49;98436.56;5036223;28;21029;-68
2024/01/08 03:06:10;;;;;;;3.77;3.10;;;-2.30;58.60;;;-3.62;64.18;98432.13;5032258;28;20513;-68
2024/01/08 03:08:37;;;;;;;2.40;2.20;;;-2.40;58.50;;;-3.53;63.83;98433.25;5033042;28;20463;-67
2024/01/08 03:11:05;;;;;;;2.60;2.30;;;-2.30;58.40;;;-3.56;63.53;98444.03;5036379;28;21330;-69
2024/01/08 03:13:32;;;;;;;6.10;2.57;;;-2.30;58.20;;;-3.62;63.61;98440.06;5040153;28;20545;-69
2024/01/08 03:16:02;;;;;;;2.30;2.10;;;-2.30;57.90;;;-4.16;63.68;98346.38;5041549;28;20489;-69
2024/01/08 03:18:29;;;;;;;4.00;2.37;;;-2.30;57.80;;;-3.57;63.16;98442.34;5039817;28;21281;-68
2024/01/08 03:20:55;;;;;;;3.73;2.30;;;-2.30;57.80;;;-3.60;63.15;98443.44;5036747;28;20456;-68
2024/01/08 03:23:22;;;;;;;3.07;2.30;;;-2.40;57.60;;;-3.61;63.28;98440.88;5040940;28;20442;-69
2024/01/08 03:25:50;;;;;;;2.63;2.43;;;-2.40;57.70;;;-3.76;63.03;98435.78;5041188;28;20450;-69
2024/01/08 03:28:17;;;;;;;4.13;2.80;;;-2.40;57.70;;;-3.64;63.48;98435.84;5032233;28;20537;-69
2024/01/08 03:30:44;;;;;;;3.27;2.97;;;-2.40;57.50;;;-3.60;63.29;98437.28;5040394;28;20466;-68
2024/01/08 03:33:13;;;;;;;2.90;2.57;;;-2.40;57.80;;;-3.47;63.02;98443.34;5035548;28;20438;-68
2024/01/08 03:35:43;;;;;;;4.43;3.37;;;-2.30;57.90;;;-3.51;63.46;98441.03;5034413;28;20477;-68
2024/01/08 03:38:10;;;;;;;3.30;2.23;;;-2.30;57.80;;;-3.43;63.01;98439.50;5033253;28;20455;-67
2024/01/08 03:40:40;;;;;;;3.20;2.90;;;-2.30;57.80;;;-3.48;63.41;98438.19;5032066;28;20504;-67
2024/01/08 03:43:10;;;;;;;4.53;3.30;;;-2.30;57.60;;;-3.41;63.24;98444.69;5031774;28;20453;-67
2024/01/08 03:45:37;;;;;;;2.70;2.50;;;-2.30;57.70;;;-3.48;63.44;98440.81;5036048;28;20485;-67
2024/01/08 03:48:06;;;;;;;3.03;2.70;;;-2.30;57.70;;;-3.43;63.32;98436.84;5033551;28;20561;-69
2024/01/08 03:50:35;;;;;;;4.53;3.10;;;-2.30;57.90;;;-3.44;63.79;98448.38;5049845;28;20439;-68
2024/01/08 03:53:02;;;;;;;5.10;3.07;;;-2.30;57.90;;;-3.39;62.97;98449.84;5036132;28;20457;-69
2024/01/08 03:55:30;;;;;;;3.03;2.20;;;-2.20;57.70;;;-3.38;63.12;98451.53;5036969;28;20488;-68
2024/01/08 03:57:57;;;;;;;3.73;2.60;;;-2.30;57.60;;;-3.40;62.60;98449.00;5040755;28;20449;-68
2024/01/08 04:00:25;;;;;;;2.90;2.50;;;-2.20;57.50;;;-3.45;63.01;98451.97;5041773;28;20568;-69
2024/01/08 04:02:52;;;;;;;4.20;2.77;;;-2.30;57.60;;;-3.36;63.20;98454.91;5036031;28;20468;-69
2024/01/08 04:05:20;;;;;;;3.40;3.00;;;-2.30;57.80;;;-3.32;63.35;98456.34;5036669;28;20462;-69
2024/01/08 04:07:48;;;;;;;4.50;2.90;;;-2.20;57.90;;;-3.17;62.94;98463.09;5034513;28;20948;-70
2024/01/08 04:10:15;;;;;;;4.20;2.87;;;-2.10;57.80;;;-3.33;63.29;98459.94;5040383;28;20936;-69
2024/01/08 04:12:43;;;;;;;4.07;2.90;;;-2.10;57.80;;;-3.39;63.41;98465.72;5039948;28;20475;-69
2024/01/08 04:15:10;;;;;;;2.80;2.57;;;-2.20;57.70;;;-3.37;63.00;98463.78;5037354;28;20461;-68
2024/01/08 04:17:37;;;;;;;8.20;3.17;;;-2.20;57.40;;;-3.40;63.11;98464.03;5046025;28;20815;-69
2024/01/08 04:20:06;;;;;;;3.90;2.90;;;-2.20;57.40;;;-3.31;63.01;98464.19;5043904;28;20523;-68
2024/01/08 04:22:34;;;;;;;3.63;3.30;;;-2.20;57.60;;;-3.26;62.55;98461.19;5036532;28;20458;-69
2024/01/08 04:25:02;;;;;;;4.13;2.90;;;-2.20;57.80;;;-3.24;62.10;98474.28;5044246;28;20459;-67
2024/01/08 04:27:30;;;;;;;3.97;2.77;;;-2.20;57.20;;;-3.45;62.71;98459.91;5038898;28;20464;-68
2024/01/08 04:29:58;;;;;;;4.53;3.50;;;-2.20;57.30;;;-3.27;62.87;98465.63;5040205;28;20453;-68
2024/01/08 04:32:25;;;;;;;4.23;3.00;;;-2.20;57.50;;;-3.30;63.48;98472.94;5038602;28;20450;-67
2024/01/08 04:34:53;;;;;;;3.50;3.20;;;-2.20;57.90;;;-3.35;62.74;98470.63;5049603;28;20466;-68
2024/01/08 04:37:20;;;;;;;2.77;2.27;;;-2.20;57.60;;;-3.34;63.06;98472.31;5046736;28;20478;-67
2024/01/08 04:39:47;;;;;;;5.40;3.13;;;-2.20;57.60;;;-3.38;62.82;98475.31;5048985;28;20540;-66
2024/01/08 04:42:16;;;;;;;3.40;2.90;;;-2.20;57.50;;;-3.43;63.02;98468.56;5043806;28;20729;-68
2024/01/08 04:44:44;;;;;;;4.33;3.40;;;-2.20;57.60;;;-3.40;63.79;98477.25;5057611;28;20474;-68
2024/01/08 04:47:11;;;;;;;6.23;3.97;;;-2.20;57.90;;;-3.55;63.46;98477.44;5047326;28;20455;-69
2024/01/08 04:49:39;;;;;;;5.00;2.87;;;-2.30;57.80;;;-3.55;63.64;98480.06;5039018;28;20505;-69
2024/01/08 04:52:06;;;;;;;4.13;3.10;;;-2.30;57.60;;;-3.60;63.87;98480.41;5042126;28;20474;-69
2024/01/08 04:54:34;;;;;;;2.93;2.73;;;-2.40;57.40;;;-3.56;63.34;98476.56;5048678;28;20464;-68
2024/01/08 04:57:01;;;;;;;5.00;3.73;;;-2.30;57.50;;;-3.52;63.66;98478.97;5046019;28;20524;-69
2024/01/08 04:59:30;;;;;;;2.53;2.20;;;-2.40;57.60;;;-3.67;63.39;98476.53;5039121;28;20451;-67
2024/01/08 05:01:59;;;;;;;3.30;2.70;;;-2.40;57.40;;;-3.62;63.27;98487.59;5039278;28;20459;-68
2024/01/08 05:04:26;;;;;;;3.80;2.90;;;-2.40;57.40;;;-3.66;63.88;98490.59;5058084;28;20451;-69
2024/01/08 05:06:53;;;;;;;3.60;2.63;;;-2.40;57.60;;;-3.59;64.16;98489.16;5055937;28;20466;-69
2024/01/08 05:09:20;;;;;;;4.70;3.20;;;-2.40;57.70;;;-3.57;63.09;98490.75;5046735;28;21042;-69
2024/01/08 05:11:47;;;;;;;3.43;3.10;;;-2.40;57.40;;;-3.61;63.31;98493.72;5046812;28;20461;-68
2024/01/08 05:14:14;;;;;;;3.60;3.10;;;-2.40;57.20;;;-3.57;63.14;98493.38;5048876;28;20672;-70
2024/01/08 05:16:43;;;;;;;3.40;2.57;;;-2.40;57.30;;;-3.70;63.23;98495.25;5050045;28;20492;-67
2024/01/08 05:19:10;;;;;;;5.03;2.70;;;-2.40;56.90;;;-3.72;62.35;98497.97;5042334;28;20454;-68
2024/01/08 05:21:38;;;;;;;3.10;2.67;;;-2.40;56.70;;;-3.60;62.77;98500.69;5045068;28;20465;-68
2024/01/08 05:24:07;;;;;;;4.73;3.00;;;-2.50;56.80;;;-3.60;62.67;98500.69;5042883;28;20465;-67
2024/01/08 05:26:34;;;;;;;3.50;2.93;;;-2.40;56.80;;;-3.61;62.96;98502.50;5043723;28;20465;-67
2024/01/08 05:29:01;;;;;;;4.33;3.20;;;-2.40;57.00;;;-3.89;62.49;98490.47;5050104;28;20455;-67
2024/01/08 05:31:29;;;;;;;4.63;3.27;;;-2.50;56.40;;;-3.75;62.87;98505.31;5041630;28;20459;-67
2024/01/08 05:33:57;;;;;;;3.33;3.03;;;-2.50;56.60;;;-3.85;62.74;98518.34;5038562;28;20446;-69
2024/01/08 05:36:24;;;;;;;3.00;2.07;;;-2.50;56.40;;;-3.82;62.09;98507.56;5043659;28;20835;-69
2024/01/08 05:38:52;;;;;;;4.40;2.37;;;-2.50;56.40;;;-3.84;62.35;98515.59;5035697;28;20841;-71
2024/01/08 05:41:20;;;;;;;4.60;2.90;;;-2.60;56.30;;;-3.76;62.14;98511.56;5035261;28;20554;-70
2024/01/08 05:43:47;;;;;;;5.20;3.27;;;-2.50;56.30;;;-3.88;62.91;98515.91;5043584;28;20463;-69
2024/01/08 05:46:15;;;;;;;3.10;2.40;;;-2.60;56.40;;;-3.78;62.05;98514.28;5052192;28;20442;-69
2024/01/08 05:48:42;;;;;;;3.20;2.10;;;-2.60;56.20;;;-3.79;61.64;98524.97;5059627;28;20484;-69
2024/01/08 05:51:11;;;;;;;8.13;2.60;;;-2.50;55.80;;;-3.83;61.78;98521.72;5054453;28;21049;-69
2024/01/08 05:53:38;;;;;;;3.57;3.20;;;-2.60;55.90;;;-3.89;62.04;98528.28;5045058;28;20933;-70
2024/01/08 05:56:06;;;;;;;4.93;2.60;;;-2.60;56.10;;;-3.97;62.30;98506.03;5041894;28;20502;-70
2024/01/08 05:58:33;;;;;;;2.80;2.50;;;-2.60;56.50;;;-3.82;62.59;98515.47;5034373;28;20461;-69
2024/01/08 06:01:00;;;;;;;3.43;2.80;;;-2.60;56.80;;;-3.87;62.38;98530.78;5047643;28;20542;-70
2024/01/08 06:03:27;;;;;;;3.50;2.70;;;-2.60;56.10;;;-4.29;62.34;98458.09;5047280;28;20530;-71
2024/01/08 06:05:55;;;;;;;3.80;3.20;;;-2.60;56.20;;;-3.92;62.13;98519.72;5034121;28;20470;-70
2024/01/08 06:08:23;;;;;;;2.70;2.50;;;-2.60;55.80;;;-4.06;62.26;98526.03;5033677;28;20905;-69
2024/01/08 06:10:50;;;;;;;5.00;3.43;;;-2.70;55.80;;;-3.94;62.19;98535.72;5034612;28;20782;-70
2024/01/08 06:13:18;;;;;;;4.30;3.40;;;-2.70;55.90;;;-3.81;61.89;98524.22;5041513;28;20756;-70
2024/01/08 06:15:45;;;;;;;5.77;3.80;;;-2.60;56.00;;;-3.91;62.44;98529.34;5039624;28;20463;-69
2024/01/08 06:18:13;;;;;;;3.20;2.50;;;-2.60;56.10;;;-3.91;62.26;98531.97;5036288;28;20482;-68
2024/01/08 06:20:41;;;;;;;3.40;3.10;;;-2.60;56.10;;;-4.42;62.02;98434.38;5038626;28;20881;-70
2024/01/08 06:23:08;;;;;;;3.43;2.47;;;-2.60;56.00;;;-3.82;62.48;98539.25;5037538;28;20464;-72
2024/01/08 06:25:37;;;;;;;3.60;3.30;;;-2.60;55.90;;;-3.83;62.18;98534.94;5048024;28;21230;-70
2024/01/08 06:28:05;;;;;;;4.00;3.47;;;-2.60;56.00;;;-3.76;61.93;98530.88;5044069;28;20478;-70
2024/01/08 06:30:33;;;;;;;3.43;2.80;;;-2.60;56.00;;;-3.79;62.44;98533.75;5035321;28;20463;-71
2024/01/08 06:33:00;;;;;;;3.73;3.30;;;-2.60;56.20;;;-3.85;62.66;98526.28;5033966;28;20450;-71
2024/01/08 06:35:27;;;;;;;3.70;3.13;;;-2.60;56.30;;;-3.88;63.38;98534.38;5029016;28;20971;-70
2024/01/08 06:37:55;;;;;;;6.23;3.30;;;-2.70;56.50;;;-3.82;63.01;98527.81;5037016;28;20478;-70
2024/01/08 06:40:22;;;;;;;3.30;2.80;;;-2.70;56.60;;;-3.87;63.19;98528.16;5030253;28;20477;-70
2024/01/08 06:42:50;;;;;;;3.70;3.33;;;-2.60;56.60;;;-3.84;62.80;98531.44;5032909;28;20452;-69
2024/01/08 06:45:18;;;;;;;4.13;3.73;;;-2.70;56.40;;;-3.92;63.09;98530.28;5032570;28;20544;-69
2024/01/08 06:47:45;;;;;;;3.80;2.73;;;-2.70;56.30;;;-3.84;63.15;98530.59;5045135;28;20459;-70
2024/01/08 06:50:13;;;;;;;3.40;3.10;;;-2.70;56.70;;;-3.89;63.17;98523.00;5035278;28;20451;-70
2024/01/08 06:52:40;;;;;;;6.23;3.37;;;-2.70;56.90;;;-3.92;63.67;98517.09;5033223;28;20990;-70
2024/01/08 06:55:09;;;;;;;4.97;3.07;;;-2.70;56.90;;;-3.79;63.28;98530.25;5033041;28;20527;-70
2024/01/08 06:57:36;;;;;;;4.80;3.40;;;-2.60;56.80;;;-3.76;63.27;98527.41;5036130;28;20478;-69
2024/01/08 07:00:08;;;;;;;3.73;3.23;;;-2.60;56.70;;;-3.73;62.90;98528.00;5039993;28;21146;-69
2024/01/08 07:02:35;;;;;;;4.10;3.70;;;-2.50;56.80;;;-3.75;63.21;98531.72;5032322;28;20544;-66
2024/01/08 07:05:02;;;;;;;4.30;3.47;;;-2.60;56.80;;;-3.80;63.48;98539.13;5031098;28;20455;-66
2024/01/08 07:07:29;;;;;;;5.67;4.63;;;-2.60;57.10;;;-3.80;63.95;98537.34;5027580;28;20454;-67
2024/01/08 07:09:56;;;;;;;4.03;3.53;;;-2.60;57.30;;;-3.69;63.99;98533.91;5031572;28;20461;-69
2024/01/08 07:12:24;;;;;;;5.00;3.60;;;-2.60;57.20;;;-3.92;63.39;98511.81;5040914;28;20459;-79
2024/01/08 07:14:52;;;;;;;4.93;3.80;;;-2.60;57.30;;;-3.70;63.44;98541.00;5033280;28;20491;-72
2024/01/08 07:17:21;;;;;;;5.13;4.10;;;-2.60;57.30;;;-3.75;63.97;98527.28;5030277;28;20568;-71
2024/01/08 07:19:48;;;;;;;5.10;4.23;;;-2.60;57.50;;;-3.71;64.00;98526.13;5028742;28;20498;-70
2024/01/08 07:22:15;;;;;;;5.93;3.67;;;-2.60;57.60;;;-3.70;64.32;98543.66;5034891;28;20514;-71
2024/01/08 07:24:43;;;;;;;5.23;3.90;;;-2.60;57.60;;;-3.70;63.91;98538.38;5049323;28;20484;-71
2024/01/08 07:27:11;;;;;;;4.63;3.70;;;-2.60;57.60;;;-3.68;63.97;98545.34;5041305;28;20464;-70
2024/01/08 07:29:38;;;;;;;3.63;3.33;;;-2.50;57.70;;;-3.61;64.21;98531.56;5038823;28;20454;-70
2024/01/08 07:32:06;;;;;;;5.37;4.37;;;-2.50;57.80;;;-3.71;64.71;98551.66;5040465;28;20459;-70
2024/01/08 07:34:35;;;;;;;4.87;4.20;;;-2.50;58.10;;;-3.84;64.95;98541.16;5036651;28;20938;-70
2024/01/08 07:37:02;;;;;;;4.43;4.03;;;-2.40;58.10;;;-3.78;65.34;98551.28;5033471;28;20871;-70
2024/01/08 07:39:29;;;;;;;4.67;4.20;;;-2.40;58.00;;;-3.83;65.51;98548.13;5032236;28;20457;-71
2024/01/08 07:41:56;;;;;;;5.20;4.20;;;-2.40;58.00;;;-3.74;65.48;98552.72;5034061;28;20458;-71
2024/01/08 07:44:24;;;;;;;7.90;4.40;;;-2.40;58.00;;;-3.69;66.45;98536.53;5042804;28;20525;-71
2024/01/08 07:46:52;;;;;;;5.17;4.53;;;-2.30;58.90;;;-3.56;65.54;98545.25;5036895;28;20463;-71
2024/01/08 07:49:20;;;;;;;6.03;4.90;;;-2.20;58.50;;;-3.63;65.39;98557.25;5052215;28;20478;-70
2024/01/08 07:51:49;;;;;;;5.20;3.73;;;-2.20;58.20;;;-3.55;65.28;98543.47;5066793;28;21195;-71
2024/01/08 07:54:16;;;;;;;5.70;4.80;;;-2.10;58.40;;;-3.55;65.08;98551.41;5040354;28;20472;-70
2024/01/08 07:56:43;;;;;;;5.73;4.50;;;-2.10;58.20;;;-3.46;65.35;98547.25;5046285;28;20478;-70
2024/01/08 07:59:11;;;;;;;5.40;4.50;;;-2.10;58.80;;;-3.58;66.03;98556.88;5036692;28;20496;-71
2024/01/08 08:01:38;;;;;;;5.73;4.30;;;-2.10;58.60;;;-3.39;65.16;98566.13;5037871;28;20457;-71
2024/01/08 08:04:05;;;;;;;6.43;4.80;;;-2.10;58.50;;;-3.26;64.74;98551.06;5047216;28;20453;-72
2024/01/08 08:06:32;;;;;;;7.57;4.73;;;-1.90;58.50;;;-3.27;65.24;98573.13;5044846;28;20467;-70
2024/01/08 08:09:02;;;;;;;4.73;4.23;;;-1.90;58.50;;;-3.49;65.84;98581.78;5048787;28;20509;-70
2024/01/08 08:11:29;;;;;;;6.70;5.40;;;-2.00;58.60;;;-3.37;66.27;98558.94;5043943;28;21001;-71
2024/01/08 08:13:56;;;;;;;6.57;5.23;;;-2.00;58.90;;;-3.46;66.74;98574.50;5042226;28;20457;-70
2024/01/08 08:16:24;;;;;;;5.67;4.27;;;-2.00;58.90;;;-3.56;66.25;98582.25;5037024;28;20469;-70
2024/01/08 08:18:51;;;;;;;5.47;4.33;;;-2.10;58.60;;;-3.62;66.55;98573.94;5041041;28;20485;-70
2024/01/08 08:21:19;;;;;;;7.33;4.30;;;-2.10;58.70;;;-3.64;65.89;98589.03;5059811;28;20942;-70
2024/01/08 08:23:46;;;;;;;6.20;4.93;;;-2.10;58.60;;;-3.53;66.48;98581.19;5051097;28;20521;-70
2024/01/08 08:26:15;;;;;;;7.37;5.20;;;-2.10;58.70;;;-3.59;66.30;98586.91;5039154;28;20554;-70
2024/01/08 08:28:42;;;;;;;7.17;5.30;;;-2.10;58.60;;;-3.58;65.84;98591.22;5043440;28;20994;-70
2024/01/08 08:31:09;;;;;;;5.47;4.50;;;-2.10;58.60;;;-3.48;65.75;98596.72;5041349;28;20510;-71
2024/01/08 08:33:38;;;;;;;5.30;4.00;;;-2.00;58.50;;;-3.51;65.35;98594.28;5039446;28;20457;-71
2024/01/08 08:36:06;;;;;;;6.03;4.47;;;-2.00;58.20;;;-3.50;65.77;98602.09;5038457;28;20457;-71
2024/01/08 08:38:33;;;;;;;9.43;4.33;;;-2.00;58.30;;;-3.62;65.16;98602.97;5037957;28;20524;-70
2024/01/08 08:41:00;;;;;;;5.60;4.80;;;-2.10;58.00;;;-3.85;65.69;98602.84;5039619;28;20950;-71
2024/01/08 08:43:30;;;;;;;6.70;4.80;;;-2.20;57.90;;;-3.91;66.31;98613.84;5055247;28;20482;-72
2024/01/08 08:45:58;;;;;;;5.13;4.57;;;-2.30;58.00;;;-4.02;66.26;98618.09;5044452;28;20453;-72
2024/01/08 08:48:25;;;;;;;6.10;3.67;;;-2.40;57.90;;;-3.92;66.26;98622.72;5038843;28;21019;-72
2024/01/08 08:50:52;;;;;;;6.47;4.53;;;-2.40;58.20;;;-4.07;65.77;98629.94;5041266;28;20449;-71
2024/01/08 08:53:20;;;;;;;5.13;3.70;;;-2.40;57.90;;;-4.09;66.33;98632.66;5041599;28;20659;-71
2024/01/08 08:55:47;;;;;;;7.87;4.73;;;-2.50;58.00;;;-3.97;66.30;98630.13;5042083;28;21047;-71
2024/01/08 08:58:14;;;;;;;3.90;3.60;;;-2.50;58.00;;;-4.04;66.40;98638.44;5031653;28;20869;-72
2024/01/08 09:00:43;;;;;;;5.20;4.40;;;-2.50;58.10;;;-4.10;66.17;98641.53;5037043;28;21077;-72
2024/01/08 09:03:10;;;;;;;7.00;4.53;;;-2.50;58.00;;;-3.96;65.64;98643.19;5033508;28;20454;-72
2024/01/08 09:05:38;;;;;;;5.80;5.00;;;-2.50;57.90;;;-3.96;65.68;98648.47;5051006;28;20465;-71
2024/01/08 09:08:06;;;;;;;6.27;5.17;;;-2.40;57.90;;;-3.99;65.89;98644.28;5043952;28;20469;-72
2024/01/08 09:10:33;;;;;;;6.27;4.40;;;-2.50;57.80;;;-4.06;65.51;98658.84;5036988;28;20461;-71
2024/01/08 09:13:01;;;;;;;6.97;4.67;;;-2.50;57.70;;;-4.04;65.57;98645.53;5050740;28;20462;-71
2024/01/08 09:15:28;;;;;;;7.13;5.13;;;-2.50;57.80;;;-4.05;65.68;98659.69;5043071;28;20461;-71
2024/01/08 09:17:56;;;;;;;6.40;4.80;;;-2.50;57.60;;;-4.23;65.75;98652.09;5047263;28;21001;-71
2024/01/08 09:20:24;;;;;;;7.23;4.43;;;-2.60;57.50;;;-4.60;65.48;98586.88;5050906;28;20459;-71
2024/01/08 09:22:51;;;;;;;8.00;4.70;;;-2.60;57.60;;;-4.03;65.17;98661.25;5045282;28;20473;-71
2024/01/08 09:25:19;;;;;;;7.80;4.90;;;-2.50;57.60;;;-4.12;65.69;98664.56;5050054;28;20458;-73
2024/01/08 09:27:47;;;;;;;7.73;4.80;;;-2.60;57.50;;;-3.91;65.29;98662.22;5058123;28;20507;-72
2024/01/08 09:30:14;;;;;;;6.60;5.50;;;-2.50;57.60;;;-3.88;64.95;98671.69;5048228;28;20438;-74
2024/01/08 09:32:41;;;;;;;6.77;4.87;;;-2.40;57.40;;;-4.02;64.70;98677.97;5041016;28;20507;-72
2024/01/08 09:35:10;;;;;;;6.87;4.97;;;-2.50;56.90;;;-4.01;64.75;98677.88;5046478;28;20949;-72
2024/01/08 09:37:38;;;;;;;7.60;4.93;;;-2.40;56.90;;;-3.91;64.49;98679.84;5047516;28;20508;-72
2024/01/08 09:40:07;;;;;;;9.43;5.30;;;-2.40;56.90;;;-3.90;64.73;98678.88;5052544;28;20471;-73
2024/01/08 09:42:36;;;;;;;7.80;5.30;;;-2.40;56.90;;;-4.29;64.06;98636.69;5049387;28;20798;-72
2024/01/08 09:45:06;;;;;;;7.33;5.57;;;-2.40;56.60;;;-4.12;64.33;98660.09;5035598;28;20462;-72
2024/01/08 09:47:35;;;;;;;10.53;4.60;;;-2.40;56.90;;;-3.89;63.96;98677.94;5044128;28;20538;-71
2024/01/08 09:50:03;;;;;;;11.20;5.50;;;-2.40;56.80;;;-4.11;64.23;98671.53;5041385;28;20457;-70
2024/01/08 09:52:34;;;;;;;9.63;4.77;;;-2.50;56.30;;;-4.16;63.96;98671.84;5040666;28;20831;-72
2024/01/08 09:55:02;;;;;;;5.77;4.50;;;-2.60;56.50;;;-4.01;64.12;98667.31;5033959;28;21080;-71
2024/01/08 09:57:30;;;;;;;5.07;3.60;;;-2.50;56.60;;;-3.85;63.20;98687.34;5037376;28;20483;-71
2024/01/08 09:59:57;;;;;;;6.73;4.70;;;-2.40;56.40;;;-3.93;63.12;98673.81;5039453;28;20463;-71
2024/01/08 10:02:24;;;;;;;9.23;5.23;;;-2.40;56.20;;;-3.97;63.38;98662.63;5043845;28;20464;-71
2024/01/08 10:04:51;;;;;;;8.73;5.17;;;-2.40;56.20;;;-3.94;63.63;98674.78;5051019;28;20463;-71
2024/01/08 10:07:19;;;;;;;7.10;4.37;;;-2.40;56.40;;;-3.87;63.44;98673.38;5031317;28;20464;-71
2024/01/08 10:09:47;;;;;;;7.47;5.77;;;-2.30;56.40;;;-4.04;63.12;98675.41;5039479;28;20459;-71
2024/01/08 10:12:16;;;;;;;9.97;4.73;;;-2.40;55.70;;;-3.95;62.55;98692.41;5037052;28;20454;-70
2024/01/08 10:14:43;;;;;;;8.90;6.20;;;-2.40;55.70;;;-3.99;62.93;98675.97;5042731;28;20457;-72
2024/01/08 10:17:14;;;;;;;9.27;6.20;;;-2.40;55.70;;;-3.96;63.26;98674.06;5031310;28;20472;-72
2024/01/08 10:19:41;;;;;;;11.50;5.70;;;-2.40;55.90;;;-3.70;62.91;98667.78;5053758;28;20975;-72
2024/01/08 10:22:10;;;;;;;7.83;5.20;;;-2.30;56.10;;;-3.83;63.06;98674.88;5039027;28;20541;-72